createdAt,value
2017-01-10T00:00:06.299Z,636.21
2017-01-10T00:01:06.317Z,634.92
2017-01-10T00:02:06.262Z,635.43
2017-01-10T00:03:06.216Z,633.41
2017-01-10T00:04:06.326Z,635.16
2017-01-10T00:05:06.447Z,635.11
2017-01-10T00:06:06.312Z,633.78
2017-01-10T00:07:06.392Z,635.47
2017-01-10T00:08:06.442Z,636.22
2017-01-10T00:09:06.628Z,634.66
2017-01-10T00:10:06.418Z,633.37
2017-01-10T00:11:06.278Z,633.8
2017-01-10T00:12:06.204Z,635.76
2017-01-10T00:13:06.478Z,636.32
2017-01-10T00:14:06.396Z,635.99
2017-01-10T00:15:06.469Z,635.1
2017-01-10T00:16:06.262Z,634.89
2017-01-10T00:17:06.230Z,635.01
2017-01-10T00:18:06.468Z,634.11
2017-01-10T00:19:06.411Z,633.16
2017-01-10T00:20:06.382Z,635.07
2017-01-10T00:21:06.404Z,634.59
2017-01-10T00:22:06.428Z,633.42
2017-01-10T00:23:06.510Z,632.37
2017-01-10T00:24:06.428Z,633.1
2017-01-10T00:25:06.419Z,633.1
2017-01-10T00:26:06.358Z,633.65
2017-01-10T00:27:06.406Z,633.66
2017-01-10T00:28:06.255Z,633.52
2017-01-10T00:29:06.313Z,633.05
2017-01-10T00:30:06.356Z,632.62
2017-01-10T00:31:06.344Z,632.71
2017-01-10T00:32:06.238Z,632.73
2017-01-10T00:33:06.345Z,634.62
2017-01-10T00:34:06.339Z,635.9
2017-01-10T00:35:06.428Z,634.76
2017-01-10T00:36:06.486Z,634.98
2017-01-10T00:37:06.377Z,632.55
2017-01-10T00:38:06.339Z,634.2
2017-01-10T00:39:06.342Z,632.38
2017-01-10T00:40:06.490Z,633.34
2017-01-10T00:41:06.364Z,632.97
2017-01-10T00:42:06.270Z,632.79
2017-01-10T00:43:06.272Z,632.01
2017-01-10T00:44:06.295Z,632.28
2017-01-10T00:45:06.373Z,633.84
2017-01-10T00:46:06.246Z,633.04
2017-01-10T00:47:06.248Z,632.18
2017-01-10T00:48:06.368Z,634.2
2017-01-10T00:49:06.344Z,633.06
2017-01-10T00:50:06.527Z,633.38
2017-01-10T00:51:06.319Z,632.55
2017-01-10T00:52:06.228Z,633.57
2017-01-10T00:53:06.259Z,633.41
2017-01-10T00:54:06.435Z,633.12
2017-01-10T00:55:06.487Z,631.91
2017-01-10T00:56:06.366Z,632.25
2017-01-10T00:57:06.569Z,631.05
2017-01-10T00:58:06.359Z,631.02
2017-01-10T00:59:06.443Z,632.37
2017-01-10T01:00:06.354Z,632.11
2017-01-10T01:01:06.485Z,630.92
2017-01-10T01:02:06.297Z,630.99
2017-01-10T01:03:06.412Z,632.06
2017-01-10T01:04:06.525Z,632.36
2017-01-10T01:05:06.385Z,630.43
2017-01-10T01:06:06.488Z,629.42
2017-01-10T01:07:06.515Z,628.91
2017-01-10T01:08:06.515Z,629.03
2017-01-10T01:09:06.477Z,628.95
2017-01-10T01:10:06.554Z,630
2017-01-10T01:11:06.433Z,629.87
2017-01-10T01:12:06.435Z,630.17
2017-01-10T01:13:06.403Z,628.66
2017-01-10T01:14:06.285Z,627.99
2017-01-10T01:15:06.513Z,627.67
2017-01-10T01:16:06.532Z,626.52
2017-01-10T01:17:06.469Z,628.15
2017-01-10T01:18:06.385Z,628.73
2017-01-10T01:19:06.386Z,628.9
2017-01-10T01:20:06.363Z,627.63
2017-01-10T01:21:06.369Z,627.06
2017-01-10T01:22:06.370Z,626.93
2017-01-10T01:23:06.342Z,628.09
2017-01-10T01:24:06.568Z,627.5
2017-01-10T01:25:06.397Z,627.8
2017-01-10T01:26:06.377Z,628.58
2017-01-10T01:27:06.438Z,627.21
2017-01-10T01:28:06.523Z,627.97
2017-01-10T01:29:06.566Z,625.19
2017-01-10T01:30:06.445Z,627.04
2017-01-10T01:31:06.475Z,626.4
2017-01-10T01:32:06.388Z,624.4
2017-01-10T01:33:06.500Z,624.54
2017-01-10T01:34:06.467Z,624.69
2017-01-10T01:35:06.481Z,623.87
2017-01-10T01:36:06.386Z,625.94
2017-01-10T01:37:06.423Z,625.67
2017-01-10T01:38:06.302Z,626.3
2017-01-10T01:39:06.362Z,625.03
2017-01-10T01:40:06.436Z,625.33
2017-01-10T01:41:06.431Z,624.14
2017-01-10T01:42:06.463Z,625.46
2017-01-10T01:43:06.391Z,624.74
2017-01-10T01:44:06.432Z,624.84
2017-01-10T01:45:06.474Z,623.99
2017-01-10T01:46:06.429Z,625.97
2017-01-10T01:47:06.422Z,623.91
2017-01-10T01:48:06.368Z,624.82
2017-01-10T01:49:06.515Z,625.49
2017-01-10T01:50:06.552Z,625.06
2017-01-10T01:51:06.417Z,625.92
2017-01-10T01:52:06.374Z,625.4
2017-01-10T01:53:06.319Z,625.37
2017-01-10T01:54:06.404Z,625.56
2017-01-10T01:55:06.458Z,625.12
2017-01-10T01:56:06.289Z,624.54
2017-01-10T01:57:06.449Z,623.2
2017-01-10T01:58:06.494Z,623.67
2017-01-10T01:59:06.469Z,623.57
2017-01-10T02:00:06.526Z,622.85
2017-01-10T02:01:06.483Z,622.58
2017-01-10T02:02:06.420Z,623.8
2017-01-10T02:03:06.497Z,624.71
2017-01-10T02:04:06.387Z,625.16
2017-01-10T02:05:06.526Z,624.4
2017-01-10T02:06:06.518Z,625.22
2017-01-10T02:07:06.598Z,621.14
2017-01-10T02:08:06.704Z,621.13
2017-01-10T02:09:06.485Z,622.31
2017-01-10T02:10:06.754Z,622.33
2017-01-10T02:11:06.405Z,622.5
2017-01-10T02:12:06.468Z,622.45
2017-01-10T02:13:06.490Z,622.43
2017-01-10T02:14:06.362Z,622.12
2017-01-10T02:15:06.487Z,621.79
2017-01-10T02:16:06.483Z,622.42
2017-01-10T02:17:06.384Z,623.55
2017-01-10T02:18:06.451Z,620.84
2017-01-10T02:19:06.530Z,621.71
2017-01-10T02:20:06.621Z,620.72
2017-01-10T02:21:06.487Z,621.36
2017-01-10T02:22:06.475Z,622.83
2017-01-10T02:23:06.445Z,622.28
2017-01-10T02:24:06.657Z,622.52
2017-01-10T02:25:06.558Z,621.18
2017-01-10T02:26:06.527Z,622.49
2017-01-10T02:27:06.517Z,621.68
2017-01-10T02:28:06.519Z,621.44
2017-01-10T02:29:06.496Z,620.81
2017-01-10T02:30:06.470Z,621.3
2017-01-10T02:31:06.461Z,622.43
2017-01-10T02:32:06.473Z,623.05
2017-01-10T02:33:06.491Z,621.32
2017-01-10T02:34:06.499Z,621.27
2017-01-10T02:35:06.578Z,619.81
2017-01-10T02:36:06.460Z,619.58
2017-01-10T02:37:06.426Z,621.65
2017-01-10T02:38:06.464Z,620.87
2017-01-10T02:39:06.412Z,620.39
2017-01-10T02:40:06.411Z,621.02
2017-01-10T02:41:06.500Z,619.87
2017-01-10T02:42:06.590Z,621.19
2017-01-10T02:43:06.513Z,620.6
2017-01-10T02:44:06.515Z,620.24
2017-01-10T02:45:06.485Z,621.34
2017-01-10T02:46:06.517Z,620.95
2017-01-10T02:47:06.461Z,621.31
2017-01-10T02:48:06.566Z,620.25
2017-01-10T02:49:06.439Z,619.79
2017-01-10T02:50:06.591Z,617.76
2017-01-10T02:51:06.468Z,619.52
2017-01-10T02:52:06.420Z,620.43
2017-01-10T02:53:06.498Z,620.43
2017-01-10T02:54:06.497Z,620.8
2017-01-10T02:55:06.544Z,620.36
2017-01-10T02:56:06.533Z,620.69
2017-01-10T02:57:06.598Z,621.02
2017-01-10T02:58:06.475Z,620.56
2017-01-10T02:59:06.501Z,616.8
2017-01-10T03:00:06.552Z,616.83
2017-01-10T03:01:06.393Z,617.76
2017-01-10T03:02:06.489Z,618.4
2017-01-10T03:03:06.537Z,617.64
2017-01-10T03:04:06.561Z,618.27
2017-01-10T03:05:06.463Z,616.68
2017-01-10T03:06:06.490Z,617.11
2017-01-10T03:07:07.259Z,617.62
2017-01-10T03:08:06.513Z,617.47
2017-01-10T03:09:06.559Z,615.93
2017-01-10T03:10:06.635Z,617.23
2017-01-10T03:11:06.492Z,617.36
2017-01-10T03:12:06.485Z,616.51
2017-01-10T03:13:06.601Z,614.91
2017-01-10T03:14:06.518Z,615.07
2017-01-10T03:15:06.557Z,614.49
2017-01-10T03:16:06.588Z,615.05
2017-01-10T03:17:06.562Z,615.07
2017-01-10T03:18:06.465Z,615.44
2017-01-10T03:19:06.507Z,613.83
2017-01-10T03:20:07.250Z,612.27
2017-01-10T03:21:06.608Z,609.83
2017-01-10T03:22:06.629Z,610.04
2017-01-10T03:23:06.523Z,610.88
2017-01-10T03:24:06.496Z,609.54
2017-01-10T03:25:06.728Z,609.59
2017-01-10T03:26:06.603Z,609.61
2017-01-10T03:27:06.495Z,607.47
2017-01-10T03:28:06.517Z,605.57
2017-01-10T03:29:06.523Z,606.3
2017-01-10T03:30:06.486Z,606.02
2017-01-10T03:31:06.624Z,604.28
2017-01-10T03:32:06.499Z,604.21
2017-01-10T03:33:06.549Z,602.46
2017-01-10T03:34:06.713Z,602.01
2017-01-10T03:35:06.686Z,602.38
2017-01-10T03:36:06.639Z,602.56
2017-01-10T03:37:06.607Z,598.66
2017-01-10T03:38:06.595Z,599.17
2017-01-10T03:39:06.490Z,601.57
2017-01-10T03:40:06.452Z,600.63
2017-01-10T03:41:06.616Z,597.84
2017-01-10T03:42:06.481Z,598.74
2017-01-10T03:43:06.503Z,596.48
2017-01-10T03:44:06.549Z,596.47
2017-01-10T03:45:06.653Z,597.16
2017-01-10T03:46:06.627Z,597.04
2017-01-10T03:47:07.287Z,596.21
2017-01-10T03:48:06.498Z,596.19
2017-01-10T03:49:06.472Z,593.12
2017-01-10T03:50:06.710Z,594.94
2017-01-10T03:51:06.766Z,595.26
2017-01-10T03:52:06.593Z,596.92
2017-01-10T03:53:06.479Z,593.79
2017-01-10T03:54:06.557Z,592.31
2017-01-10T03:55:06.597Z,592.36
2017-01-10T03:56:06.482Z,593.86
2017-01-10T03:57:06.456Z,593.81
2017-01-10T03:58:06.524Z,595.49
2017-01-10T03:59:06.488Z,592.76
2017-01-10T04:00:06.665Z,592.09
2017-01-10T04:02:06.575Z,590.28
2017-01-10T04:03:06.511Z,590.12
2017-01-10T04:04:06.666Z,588.14
2017-01-10T04:05:06.532Z,586.18
2017-01-10T04:06:06.461Z,588.69
2017-01-10T04:07:06.634Z,588.81
2017-01-10T04:08:06.732Z,590.38
2017-01-10T04:09:06.593Z,590.65
2017-01-10T04:10:06.683Z,589.37
2017-01-10T04:11:06.469Z,586.75
2017-01-10T04:12:06.527Z,586.15
2017-01-10T04:13:06.589Z,589.23
2017-01-10T04:14:06.556Z,589.41
2017-01-10T04:15:07.476Z,587.94
2017-01-10T04:16:06.607Z,587.58
2017-01-10T04:17:06.544Z,587.18
2017-01-10T04:18:06.492Z,584.54
2017-01-10T04:19:06.538Z,588.3
2017-01-10T04:20:06.563Z,589.21
2017-01-10T04:21:06.521Z,589.98
2017-01-10T04:22:06.609Z,588.7
2017-01-10T04:23:06.547Z,588.23
2017-01-10T04:24:06.512Z,585.78
2017-01-10T04:25:06.544Z,586.14
2017-01-10T04:26:06.464Z,586.1
2017-01-10T04:27:06.657Z,585.74
2017-01-10T04:28:06.515Z,588.09
2017-01-10T04:29:06.539Z,588.4
2017-01-10T04:30:06.556Z,588.01
2017-01-10T04:31:06.626Z,588.72
2017-01-10T04:32:06.572Z,588.16
2017-01-10T04:33:06.502Z,588.01
2017-01-10T04:34:06.593Z,586.31
2017-01-10T04:35:06.648Z,588.12
2017-01-10T04:36:06.589Z,586.87
2017-01-10T04:37:06.495Z,587.26
2017-01-10T04:38:06.614Z,587.88
2017-01-10T04:39:06.548Z,584.96
2017-01-10T04:40:06.575Z,587.49
2017-01-10T04:41:06.519Z,587.67
2017-01-10T04:42:06.589Z,588.44
2017-01-10T04:43:06.530Z,589.36
2017-01-10T04:44:06.771Z,589.38
2017-01-10T04:45:06.673Z,589.2
2017-01-10T04:46:06.555Z,588.82
2017-01-10T04:47:06.539Z,588.76
2017-01-10T04:48:06.622Z,589.75
2017-01-10T04:49:06.622Z,588
2017-01-10T04:50:06.685Z,587.91
2017-01-10T04:51:06.639Z,585.24
2017-01-10T04:52:06.690Z,585.25
2017-01-10T04:53:06.662Z,587.69
2017-01-10T04:54:06.720Z,587.08
2017-01-10T04:55:06.525Z,588.49
2017-01-10T04:56:06.569Z,590.4
2017-01-10T04:57:06.709Z,589.81
2017-01-10T04:58:06.491Z,590.57
2017-01-10T04:59:06.594Z,587.26
2017-01-10T05:00:06.753Z,588.41
2017-01-10T05:01:06.696Z,588.15
2017-01-10T05:02:06.685Z,588.03
2017-01-10T05:03:06.640Z,587.16
2017-01-10T05:04:06.678Z,588.04
2017-01-10T05:05:06.684Z,589.18
2017-01-10T05:06:06.610Z,588.4
2017-01-10T05:07:06.637Z,587.84
2017-01-10T05:08:06.696Z,588.3
2017-01-10T05:09:07.466Z,589.56
2017-01-10T05:10:06.699Z,587.31
2017-01-10T05:11:06.724Z,587.42
2017-01-10T05:12:06.610Z,586.68
2017-01-10T05:13:06.594Z,584.7
2017-01-10T05:14:06.645Z,587.87
2017-01-10T05:15:06.751Z,589.38
2017-01-10T05:16:06.620Z,588.72
2017-01-10T05:17:06.689Z,589.2
2017-01-10T05:18:06.691Z,588.4
2017-01-10T05:19:06.642Z,590.02
2017-01-10T05:20:06.622Z,590.42
2017-01-10T05:21:06.670Z,588.81
2017-01-10T05:22:06.653Z,591.67
2017-01-10T05:23:06.636Z,592.23
2017-01-10T05:24:06.672Z,591.72
2017-01-10T05:25:06.680Z,592.75
2017-01-10T05:26:06.609Z,593.18
2017-01-10T05:27:06.731Z,593.82
2017-01-10T05:28:06.689Z,594.92
2017-01-10T05:29:06.738Z,593.65
2017-01-10T05:30:06.714Z,593.25
2017-01-10T05:31:06.883Z,593.19
2017-01-10T05:32:06.622Z,594.6
2017-01-10T05:33:06.854Z,596.08
2017-01-10T05:34:06.719Z,596.88
2017-01-10T05:35:06.829Z,596.54
2017-01-10T05:36:06.745Z,596.5
2017-01-10T05:37:06.722Z,596.54
2017-01-10T05:38:06.727Z,598.44
2017-01-10T05:39:06.851Z,597.85
2017-01-10T05:40:06.872Z,599.05
2017-01-10T05:41:06.781Z,599.78
2017-01-10T05:42:06.684Z,599.24
2017-01-10T05:43:06.635Z,600.45
2017-01-10T05:44:06.706Z,601.18
2017-01-10T05:45:06.690Z,602.42
2017-01-10T05:46:06.696Z,603.36
2017-01-10T05:47:06.814Z,602.76
2017-01-10T05:48:06.674Z,603.56
2017-01-10T05:49:06.807Z,604.14
2017-01-10T05:50:06.776Z,604.11
2017-01-10T05:51:06.777Z,604.49
2017-01-10T05:52:06.714Z,604.69
2017-01-10T05:53:06.745Z,604.9
2017-01-10T05:54:06.743Z,605.62
2017-01-10T05:55:06.808Z,606.15
2017-01-10T05:56:06.769Z,606.33
2017-01-10T05:57:06.793Z,606.31
2017-01-10T05:58:06.739Z,607.75
2017-01-10T05:59:06.700Z,606.43
2017-01-10T06:00:06.678Z,607.43
2017-01-10T06:01:06.635Z,607.78
2017-01-10T06:02:06.914Z,605.69
2017-01-10T06:03:06.750Z,607.36
2017-01-10T06:04:06.615Z,607.42
2017-01-10T06:05:06.666Z,608.17
2017-01-10T06:06:06.739Z,608.94
2017-01-10T06:07:06.795Z,608.53
2017-01-10T06:08:06.790Z,608.85
2017-01-10T06:09:06.680Z,610.04
2017-01-10T06:10:07.278Z,609.84
2017-01-10T06:11:08.099Z,609.43
2017-01-10T06:12:07.322Z,610.16
2017-01-10T06:13:07.313Z,610.33
2017-01-10T06:14:08.573Z,611.49
2017-01-10T06:15:06.713Z,610.86
2017-01-10T06:16:06.728Z,611.12
2017-01-10T06:17:06.697Z,613.01
2017-01-10T06:18:06.833Z,611.5
2017-01-10T06:19:06.719Z,612.61
2017-01-10T06:20:06.741Z,613.03
2017-01-10T06:21:06.879Z,613.2
2017-01-10T06:22:06.645Z,613.38
2017-01-10T06:23:06.786Z,614.5
2017-01-10T06:24:06.729Z,615.64
2017-01-10T06:25:06.734Z,615.13
2017-01-10T06:26:06.767Z,615.86
2017-01-10T06:27:06.737Z,616.25
2017-01-10T06:28:06.764Z,618.22
2017-01-10T06:29:06.788Z,617.33
2017-01-10T06:30:06.711Z,618.07
2017-01-10T06:31:06.685Z,618.45
2017-01-10T06:32:06.700Z,618.6
2017-01-10T06:33:06.669Z,617.52
2017-01-10T06:34:06.647Z,616.41
2017-01-10T06:35:06.735Z,617.32
2017-01-10T06:36:06.808Z,617.53
2017-01-10T06:37:06.700Z,617.87
2017-01-10T06:38:06.771Z,619.34
2017-01-10T06:39:06.791Z,618.89
2017-01-10T06:40:06.778Z,618.16
2017-01-10T06:41:06.752Z,619.03
2017-01-10T06:42:06.744Z,619.43
2017-01-10T06:43:06.765Z,621.23
2017-01-10T06:44:06.816Z,621.3
2017-01-10T06:45:06.864Z,621.48
2017-01-10T06:46:06.810Z,621.9
2017-01-10T06:47:06.785Z,622.63
2017-01-10T06:48:06.989Z,622.45
2017-01-10T06:49:06.775Z,624.28
2017-01-10T06:50:06.768Z,624.76
2017-01-10T06:51:06.752Z,625.52
2017-01-10T06:52:06.735Z,625.18
2017-01-10T06:53:06.699Z,623.76
2017-01-10T06:54:06.882Z,623.47
2017-01-10T06:55:06.835Z,623.3
2017-01-10T06:56:06.688Z,623.25
2017-01-10T06:57:06.525Z,623.82
2017-01-10T06:58:06.557Z,623.65
2017-01-10T06:59:06.516Z,625.49
2017-01-10T07:00:06.496Z,625.62
2017-01-10T07:01:06.512Z,626.37
2017-01-10T07:02:06.477Z,627.12
2017-01-10T07:03:06.454Z,627.85
2017-01-10T07:04:06.487Z,628.02
2017-01-10T07:05:06.523Z,628.39
2017-01-10T07:06:06.503Z,629.53
2017-01-10T07:07:06.488Z,630.98
2017-01-10T07:08:06.494Z,632.07
2017-01-10T07:09:06.498Z,632.68
2017-01-10T07:10:06.577Z,633.54
2017-01-10T07:11:06.518Z,634.66
2017-01-10T07:12:06.517Z,636.15
2017-01-10T07:13:06.472Z,635.42
2017-01-10T07:14:06.527Z,634.56
2017-01-10T07:15:06.505Z,635.15
2017-01-10T07:16:06.515Z,633.84
2017-01-10T07:17:06.481Z,635.64
2017-01-10T07:18:06.516Z,637.4
2017-01-10T07:19:06.505Z,637.43
2017-01-10T07:20:06.519Z,637.61
2017-01-10T07:21:06.538Z,637.96
2017-01-10T07:22:06.507Z,637.92
2017-01-10T07:23:06.492Z,638.1
2017-01-10T07:24:06.513Z,637.95
2017-01-10T07:25:06.549Z,638.97
2017-01-10T07:26:06.556Z,639.73
2017-01-10T07:27:06.494Z,640
2017-01-10T07:28:06.516Z,639.88
2017-01-10T07:29:06.516Z,641.34
2017-01-10T07:30:06.497Z,641.81
2017-01-10T07:31:06.562Z,642.58
2017-01-10T07:32:06.547Z,642.82
2017-01-10T07:33:06.526Z,642.1
2017-01-10T07:34:06.526Z,642.86
2017-01-10T07:35:06.531Z,644.29
2017-01-10T07:36:06.526Z,642.87
2017-01-10T07:37:06.578Z,643.1
2017-01-10T07:38:06.516Z,643.37
2017-01-10T07:39:06.550Z,641.54
2017-01-10T07:40:06.559Z,642.67
2017-01-10T07:41:06.566Z,643.24
2017-01-10T07:42:06.530Z,642.17
2017-01-10T07:43:06.546Z,642.49
2017-01-10T07:44:06.586Z,642.16
2017-01-10T07:45:06.545Z,642.69
2017-01-10T07:46:06.555Z,641.14
2017-01-10T07:47:06.542Z,641.48
2017-01-10T07:48:06.616Z,640.05
2017-01-10T07:49:06.541Z,639.35
2017-01-10T07:50:06.535Z,639.24
2017-01-10T07:51:06.543Z,639.62
2017-01-10T07:52:06.534Z,640.73
2017-01-10T07:53:06.552Z,640.76
2017-01-10T07:54:06.546Z,639.69
2017-01-10T07:55:06.545Z,641.14
2017-01-10T07:56:06.640Z,642.54
2017-01-10T07:57:06.568Z,643.45
2017-01-10T07:58:06.555Z,644
2017-01-10T07:59:06.617Z,644.56
2017-01-10T08:00:06.593Z,643.66
2017-01-10T08:01:06.604Z,642.77
2017-01-10T08:02:06.545Z,644.29
2017-01-10T08:03:06.559Z,643.21
2017-01-10T08:04:06.554Z,643.09
2017-01-10T08:05:06.564Z,643.77
2017-01-10T08:06:06.572Z,645.02
2017-01-10T08:07:06.558Z,644.68
2017-01-10T08:08:06.668Z,644.14
2017-01-10T08:09:06.605Z,644.89
2017-01-10T08:10:06.578Z,643.24
2017-01-10T08:11:06.592Z,643.43
2017-01-10T08:12:06.581Z,643.8
2017-01-10T08:13:06.555Z,644.3
2017-01-10T08:14:06.571Z,645.21
2017-01-10T08:15:06.593Z,645.02
2017-01-10T08:16:06.576Z,643.4
2017-01-10T08:17:06.579Z,641.96
2017-01-10T08:18:06.561Z,640.37
2017-01-10T08:19:06.549Z,640.87
2017-01-10T08:20:06.620Z,639.84
2017-01-10T08:21:06.601Z,637.74
2017-01-10T08:22:06.588Z,636.68
2017-01-10T08:23:06.641Z,637.1
2017-01-10T08:24:06.577Z,635.46
2017-01-10T08:25:06.576Z,635.66
2017-01-10T08:26:06.631Z,634.74
2017-01-10T08:27:06.587Z,636.72
2017-01-10T08:28:06.588Z,638.25
2017-01-10T08:29:06.611Z,639.29
2017-01-10T08:30:06.571Z,641.27
2017-01-10T08:31:06.624Z,642.72
2017-01-10T08:32:06.647Z,641.65
2017-01-10T08:33:06.598Z,643.11
2017-01-10T08:34:06.580Z,640.83
2017-01-10T08:35:06.591Z,642.99
2017-01-10T08:36:06.672Z,644.21
2017-01-10T08:37:06.588Z,644.77
2017-01-10T08:38:06.557Z,648.74
2017-01-10T08:39:06.598Z,650.72
2017-01-10T08:40:06.592Z,651.59
2017-01-10T08:41:06.619Z,651.97
2017-01-10T08:42:06.608Z,653.08
2017-01-10T08:43:06.608Z,653.45
2017-01-10T08:44:06.599Z,655.9
2017-01-10T08:45:06.628Z,657.54
2017-01-10T08:46:06.643Z,656.45
2017-01-10T08:47:06.607Z,659.26
2017-01-10T08:48:06.645Z,661.06
2017-01-10T08:49:06.603Z,660.91
2017-01-10T08:50:06.659Z,658.2
2017-01-10T08:51:06.639Z,661.05
2017-01-10T08:52:06.635Z,663.21
2017-01-10T08:53:06.637Z,663.9
2017-01-10T08:54:06.617Z,665.48
2017-01-10T08:55:06.669Z,666.07
2017-01-10T08:56:06.642Z,667.85
2017-01-10T08:57:06.822Z,667.5
2017-01-10T08:58:06.613Z,667.67
2017-01-10T08:59:06.666Z,667.88
2017-01-10T09:00:06.683Z,667.18
2017-01-10T09:01:06.655Z,667.05
2017-01-10T09:02:06.626Z,666.15
2017-01-10T09:03:06.687Z,666.31
2017-01-10T09:04:06.667Z,666.7
2017-01-10T09:05:06.640Z,665.14
2017-01-10T09:06:06.681Z,666.71
2017-01-10T09:07:06.652Z,666.71
2017-01-10T09:08:06.676Z,668.14
2017-01-10T09:09:07.144Z,667.54
2017-01-10T09:10:06.687Z,669.83
2017-01-10T09:11:06.666Z,670.71
2017-01-10T09:12:06.627Z,670.89
2017-01-10T09:13:06.643Z,672.31
2017-01-10T09:14:06.614Z,674.22
2017-01-10T09:15:06.678Z,675.6
2017-01-10T09:16:06.668Z,678.24
2017-01-10T09:17:06.656Z,679.16
2017-01-10T09:18:06.625Z,678.78
2017-01-10T09:19:06.654Z,679.45
2017-01-10T09:20:06.684Z,682.53
2017-01-10T09:21:06.677Z,687.56
2017-01-10T09:22:06.647Z,691.82
2017-01-10T09:23:06.660Z,691.1
2017-01-10T09:24:06.656Z,690.62
2017-01-10T09:25:06.653Z,691.3
2017-01-10T09:26:06.676Z,694.09
2017-01-10T09:27:06.655Z,699.19
2017-01-10T09:28:06.653Z,705.89
2017-01-10T09:29:06.654Z,708.64
2017-01-10T09:30:06.645Z,709.41
2017-01-10T09:31:06.707Z,706.7
2017-01-10T09:32:06.664Z,707.24
2017-01-10T09:33:06.665Z,707.91
2017-01-10T09:34:06.677Z,710.76
2017-01-10T09:35:06.677Z,714.61
2017-01-10T09:36:06.727Z,719.46
2017-01-10T09:37:06.672Z,722.67
2017-01-10T09:38:06.686Z,724.95
2017-01-10T09:39:06.674Z,724.65
2017-01-10T09:40:06.769Z,723.17
2017-01-10T09:41:06.731Z,731.84
2017-01-10T09:42:06.673Z,741.43
2017-01-10T09:43:06.730Z,748.21
2017-01-10T09:44:06.684Z,754.83
2017-01-10T09:45:06.675Z,770.12
2017-01-10T09:46:06.725Z,777.5
2017-01-10T09:47:06.665Z,781.8
2017-01-10T09:48:06.713Z,787.37
2017-01-10T09:49:06.694Z,790.07
2017-01-10T09:50:06.717Z,793.1
2017-01-10T09:51:06.688Z,792.17
2017-01-10T09:52:06.682Z,799.55
2017-01-10T09:53:06.725Z,806.07
2017-01-10T09:54:06.675Z,804.83
2017-01-10T09:55:06.790Z,800.75
2017-01-10T09:56:06.703Z,801.31
2017-01-10T09:57:06.684Z,801.5
2017-01-10T09:58:06.685Z,803.8
2017-01-10T09:59:06.682Z,812.25
2017-01-10T10:00:06.703Z,815.35
2017-01-10T10:01:06.747Z,819.65
2017-01-10T10:02:06.696Z,815.83
2017-01-10T10:03:06.693Z,809.46
2017-01-10T10:04:06.693Z,812.99
2017-01-10T10:05:06.700Z,811.62
2017-01-10T10:06:06.735Z,809.11
2017-01-10T10:07:06.691Z,810.7
2017-01-10T10:08:06.760Z,810.07
2017-01-10T10:09:06.709Z,806.01
2017-01-10T10:10:06.705Z,802.98
2017-01-10T10:11:07.376Z,802.66
2017-01-10T10:12:06.708Z,802.38
2017-01-10T10:13:06.762Z,800.42
2017-01-10T10:14:06.716Z,799.04
2017-01-10T10:15:06.716Z,798.25
2017-01-10T10:16:06.733Z,801.6
2017-01-10T10:17:06.717Z,801.06
2017-01-10T10:18:06.755Z,800.42
2017-01-10T10:19:06.840Z,807.83
2017-01-10T10:20:06.707Z,824.74
2017-01-10T10:21:06.760Z,836.31
2017-01-10T10:22:06.729Z,829.12
2017-01-10T10:23:06.758Z,819.65
2017-01-10T10:24:06.728Z,819.18
2017-01-10T10:25:06.847Z,831.07
2017-01-10T10:26:06.767Z,849.45
2017-01-10T10:27:06.726Z,864.45
2017-01-10T10:28:06.747Z,864.39
2017-01-10T10:29:06.717Z,864.16
2017-01-10T10:30:06.756Z,871.6
2017-01-10T10:31:06.819Z,887.11
2017-01-10T10:32:06.724Z,903.66
2017-01-10T10:33:06.765Z,916.15
2017-01-10T10:34:06.725Z,906.18
2017-01-10T10:35:06.733Z,908.31
2017-01-10T10:36:06.786Z,902.43
2017-01-10T10:37:06.783Z,905.49
2017-01-10T10:38:06.773Z,905.6
2017-01-10T10:39:06.772Z,897.17
2017-01-10T10:40:06.746Z,892.77
2017-01-10T10:41:06.843Z,889.36
2017-01-10T10:42:06.731Z,886.07
2017-01-10T10:43:06.732Z,883.71
2017-01-10T10:44:06.746Z,879.29
2017-01-10T10:45:06.720Z,878.16
2017-01-10T10:46:06.794Z,876.83
2017-01-10T10:47:06.761Z,874.54
2017-01-10T10:48:06.731Z,870.51
2017-01-10T10:49:06.769Z,866.5
2017-01-10T10:50:06.779Z,861.79
2017-01-10T10:51:06.760Z,858.33
2017-01-10T10:52:06.836Z,851.59
2017-01-10T10:53:06.745Z,847.36
2017-01-10T10:54:06.793Z,846.54
2017-01-10T10:55:06.748Z,843.85
2017-01-10T10:56:06.798Z,844.74
2017-01-10T10:57:06.779Z,842.01
2017-01-10T10:58:06.745Z,840.05
2017-01-10T10:59:06.808Z,835.85
2017-01-10T11:00:06.765Z,833.51
2017-01-10T11:01:06.787Z,831.25
2017-01-10T11:02:06.796Z,830.75
2017-01-10T11:03:06.766Z,825.22
2017-01-10T11:04:06.787Z,824.1
2017-01-10T11:05:06.774Z,818.16
2017-01-10T11:06:06.816Z,815.86
2017-01-10T11:07:06.785Z,817.03
2017-01-10T11:08:06.794Z,817.11
2017-01-10T11:09:06.784Z,816.65
2017-01-10T11:10:06.778Z,812.49
2017-01-10T11:11:06.832Z,813.84
2017-01-10T11:12:06.791Z,813.44
2017-01-10T11:13:06.822Z,812.87
2017-01-10T11:14:06.810Z,812.69
2017-01-10T11:15:06.780Z,811.76
2017-01-10T11:16:06.853Z,810.86
2017-01-10T11:17:06.767Z,810.01
2017-01-10T11:18:06.777Z,808.42
2017-01-10T11:19:06.781Z,807.82
2017-01-10T11:20:06.809Z,808.59
2017-01-10T11:21:06.812Z,806.9
2017-01-10T11:22:06.812Z,808.59
2017-01-10T11:23:06.800Z,806.35
2017-01-10T11:24:06.806Z,804.36
2017-01-10T11:25:06.771Z,804.29
2017-01-10T11:26:06.816Z,802.44
2017-01-10T11:27:06.812Z,802.42
2017-01-10T11:28:06.946Z,802.24
2017-01-10T11:29:06.846Z,801.93
2017-01-10T11:30:06.820Z,801.08
2017-01-10T11:31:06.931Z,800.33
2017-01-10T11:32:06.798Z,799.71
2017-01-10T11:33:06.800Z,801.23
2017-01-10T11:34:06.826Z,802.14
2017-01-10T11:35:06.822Z,802.77
2017-01-10T11:36:06.821Z,800.49
2017-01-10T11:37:06.805Z,799.69
2017-01-10T11:38:06.799Z,798.99
2017-01-10T11:39:06.845Z,798.49
2017-01-10T11:40:06.832Z,798.7
2017-01-10T11:41:06.830Z,795.68
2017-01-10T11:42:06.858Z,797
2017-01-10T11:43:06.807Z,799.91
2017-01-10T11:44:06.815Z,801.53
2017-01-10T11:45:06.846Z,804.14
2017-01-10T11:46:07.484Z,804.65
2017-01-10T11:47:06.836Z,804.84
2017-01-10T11:48:06.809Z,801.45
2017-01-10T11:49:06.880Z,799.98
2017-01-10T11:50:06.920Z,800.74
2017-01-10T11:51:07.005Z,798.82
2017-01-10T11:52:06.898Z,798.53
2017-01-10T11:53:06.859Z,798.04
2017-01-10T11:54:06.858Z,796.37
2017-01-10T11:55:06.944Z,797.05
2017-01-10T11:56:06.849Z,799.58
2017-01-10T11:57:06.889Z,800.3
2017-01-10T11:58:06.828Z,799.56
2017-01-10T11:59:06.837Z,799.72
2017-01-10T12:00:06.818Z,799.93
2017-01-10T12:01:06.859Z,801.15
2017-01-10T12:02:06.834Z,801.31
2017-01-10T12:03:06.883Z,799.47
2017-01-10T12:04:06.849Z,799.05
2017-01-10T12:05:06.847Z,798.42
2017-01-10T12:06:06.852Z,799.59
2017-01-10T12:07:06.855Z,795.25
2017-01-10T12:08:06.828Z,793.7
2017-01-10T12:09:06.849Z,792.52
2017-01-10T12:10:06.848Z,790.07
2017-01-10T12:11:06.851Z,786.19
2017-01-10T12:12:06.849Z,787.01
2017-01-10T12:13:06.838Z,785.78
2017-01-10T12:14:06.852Z,783.25
2017-01-10T12:15:06.879Z,782.38
2017-01-10T12:16:06.860Z,781.1
2017-01-10T12:17:06.865Z,780.33
2017-01-10T12:18:06.841Z,778.28
2017-01-10T12:19:06.849Z,777.75
2017-01-10T12:20:06.855Z,776.22
2017-01-10T12:21:06.871Z,776.08
2017-01-10T12:22:06.853Z,776.48
2017-01-10T12:23:06.858Z,776.06
2017-01-10T12:24:06.877Z,775.31
2017-01-10T12:25:06.858Z,774.2
2017-01-10T12:26:06.918Z,770.13
2017-01-10T12:27:06.882Z,769.02
2017-01-10T12:28:06.878Z,770.47
2017-01-10T12:29:06.873Z,769.72
2017-01-10T12:30:06.870Z,768.6
2017-01-10T12:31:06.940Z,766.73
2017-01-10T12:32:06.867Z,766.52